Hlavní strana
METAR-TAF:

METAR-TAF

Letiště :

Mezinárodní letiště Léon-Mba

Libreville, Gabon

zeměpisná šířka: 00-27N, zeměpisná délka: 009-25E, výška: 12 m

Aktuální stav počasí

Zpráva byla vytvořena před 24 minutami, v 01:00 UTC
Jižní vítr 6 kt
Teplota 24°C
Vlhkost vzduchu 89%
Tlak 1014 hPa
Viditelnost 10 km a více
Polojasno ve výšce 1000 ft
Oblačno až skoro zataženo ve výšce 2600 ft

METAR: FOOL 180100Z 18006KT 9999 SCT010 BKN026 24/22 Q1014 NOSIG

Čas: 02:24 (01:24 UTC)

Předpověď počasí

Zpráva byla vytvořena před 2 hodinami a 24 minutami, v 23:00 UTC
Předpověď platná od 18 v 00 UTC do 19 v 06 UTC
Jihojihozápadní vítr 8 kt
Viditelnost 10 km a více
Polojasno ve výšce 1000 ft
Oblačno až skoro zataženo ve výšce 2600 ft
Dočasný
od 18 v 06 UTC do 18 v 11 UTC
Oblačno až skoro zataženo ve výšce 800 ft
Zataženo ve výšce 2600 ft

TAF: FOOL 172300Z 1800/1906 20008KT 9999 SCT010 BKN026 TEMPO 1806/1811 BKN008 OVC026

Stav a předpovědi počasí z více než 4 000 letišť (zprávy METAR a TAF).

Červené a žluté tečky na mapě představují dostupné meteorologické stanice.

Když kurzor umístíte na tečku, zobrazí se název stanice.

Pak kliknutím zobrazíte stav a předpověď počasí.

Chcete-li změnit mapu, kliknutím na zelené tlačítko se znaménkem +mapu přiblížíte, kliknutím na zelené tlačítko se znaménkem – mapu oddálíte a kliknutím na zelené šipky přejdete na sousední mapy.


METAR-TAF: